Time;durP1;ratioP1;P1;durP2;ratioP2;P2;SDS_P1;SDS_P2;PMS_P1;PMS_P2;Temp;Humidity;BMP_temperature;BMP_pressure;BME280_temperature;BME280_humidity;BME280_pressure;Samples;Min_cycle;Max_cycle;Signal;HPM_P1;HPM_P2
2022/04/12 00:01:50;;;;;;;13.15;6.45;;;1.30;99.90;;;;;;19802645;29;20523;-53
2022/04/12 00:11:53;;;;;;;10.95;5.85;;;1.10;99.90;;;;;;19801996;29;20035;-50
2022/04/12 00:21:56;;;;;;;12.88;6.50;;;0.90;99.90;;;;;;19857598;29;20051;-49
2022/04/12 00:31:58;;;;;;;11.77;6.43;;;0.80;99.90;;;;;;19823316;29;20051;-49
2022/04/12 00:42:01;;;;;;;11.02;6.25;;;0.80;99.90;;;;;;19862258;29;20050;-49
2022/04/12 00:52:04;;;;;;;10.35;5.80;;;1.00;99.90;;;;;;19824281;29;20055;-49
2022/04/12 01:02:10;;;;;;;11.68;5.60;;;0.90;99.90;;;;;;19845127;29;20047;-52
2022/04/12 01:12:18;;;;;;;12.68;6.80;;;0.80;99.90;;;;;;19845550;29;20543;-50
2022/04/12 01:22:24;;;;;;;13.85;6.53;;;0.60;99.90;;;;;;19873221;29;20051;-48
2022/04/12 01:32:27;;;;;;;14.38;7.30;;;0.50;99.90;;;;;;19853627;29;20042;-51
2022/04/12 01:42:29;;;;;;;11.90;6.82;;;0.50;99.90;;;;;;19854291;29;20047;-52
2022/04/12 01:52:33;;;;;;;14.57;8.00;;;0.40;99.90;;;;;;19846308;29;20464;-49
2022/04/12 02:02:36;;;;;;;14.70;7.30;;;0.20;99.90;;;;;;19870928;29;20497;-50
2022/04/12 02:12:39;;;;;;;15.52;7.63;;;0.20;99.90;;;;;;19864447;29;20092;-50
2022/04/12 02:22:44;;;;;;;16.27;7.55;;;0.30;99.90;;;;;;19809705;29;20055;-48
2022/04/12 02:32:46;;;;;;;14.63;7.75;;;0.90;99.90;;;;;;19816545;29;20067;-49
2022/04/12 02:42:48;;;;;;;15.60;8.15;;;0.70;99.90;;;;;;19827331;29;20104;-50
2022/04/12 02:52:51;;;;;;;15.70;7.50;;;0.50;99.90;;;;;;19806954;29;20051;-52
2022/04/12 03:02:53;;;;;;;13.13;7.38;;;0.30;99.90;;;;;;19807041;29;20153;-48
2022/04/12 03:12:56;;;;;;;14.73;8.18;;;0.10;99.90;;;;;;19807254;29;20067;-49
2022/04/12 03:22:59;;;;;;;16.13;8.32;;;0.00;99.90;;;;;;19836435;29;20082;-53
2022/04/12 03:33:02;;;;;;;15.65;7.75;;;0.00;99.90;;;;;;19804892;29;20039;-54
2022/04/12 03:43:05;;;;;;;17.75;7.47;;;0.00;99.90;;;;;;19853370;29;20111;-51
2022/04/12 03:53:08;;;;;;;15.05;7.75;;;-0.10;99.90;;;;;;19854379;29;20047;-50
2022/04/12 04:03:11;;;;;;;15.15;7.43;;;-0.10;99.90;;;;;;19877108;29;20107;-48
2022/04/12 04:13:14;;;;;;;15.63;7.22;;;0.00;99.90;;;;;;19807989;29;20039;-52
2022/04/12 04:23:18;;;;;;;13.30;6.97;;;0.10;99.90;;;;;;19801490;29;20494;-51
2022/04/12 04:33:21;;;;;;;14.20;7.90;;;0.30;99.90;;;;;;19841299;29;20403;-48
2022/04/12 04:43:23;;;;;;;16.83;9.10;;;0.40;99.90;;;;;;19848260;29;20127;-51
2022/04/12 04:53:26;;;;;;;15.10;7.68;;;0.30;99.90;;;;;;19873884;29;20039;-52
2022/04/12 05:03:28;;;;;;;17.38;8.98;;;0.40;99.90;;;;;;19802211;29;20047;-51
2022/04/12 05:13:31;;;;;;;16.60;8.85;;;0.50;99.90;;;;;;19835889;29;20031;-51
2022/04/12 05:23:34;;;;;;;13.05;7.20;;;0.70;99.90;;;;;;19845654;29;20479;-51
2022/04/12 05:33:36;;;;;;;14.20;8.75;;;1.00;99.90;;;;;;19813434;29;20571;-54
2022/04/12 05:43:39;;;;;;;15.25;8.30;;;1.20;99.90;;;;;;19812640;29;20039;-49
2022/04/12 05:53:41;;;;;;;15.90;8.65;;;1.40;99.90;;;;;;19875655;29;20567;-54
2022/04/12 06:03:44;;;;;;;15.70;8.15;;;1.50;99.90;;;;;;19878197;29;20072;-50
2022/04/12 06:13:46;;;;;;;12.82;7.50;;;1.70;99.90;;;;;;19885197;29;20103;-51
2022/04/12 06:23:50;;;;;;;15.18;8.50;;;2.10;99.90;;;;;;19884015;29;20062;-53
2022/04/12 06:33:52;;;;;;;15.15;8.55;;;2.60;99.90;;;;;;19816286;29;20459;-51
2022/04/12 06:43:55;;;;;;;11.95;6.90;;;3.20;99.90;;;;;;19808702;29;20560;-55
2022/04/12 06:53:57;;;;;;;11.02;6.40;;;4.60;99.90;;;;;;19843884;29;20588;-55
2022/04/12 07:04:00;;;;;;;12.10;5.55;;;6.50;99.90;;;;;;19821082;29;20051;-55
2022/04/12 07:14:02;;;;;;;7.40;4.82;;;8.10;99.90;;;;;;19882141;29;20070;-56
2022/04/12 07:24:07;;;;;;;8.50;5.20;;;9.00;99.90;;;;;;19820500;29;20043;-56
2022/04/12 07:34:10;;;;;;;9.20;4.70;;;9.80;99.90;;;;;;19818571;29;20050;-57
2022/04/12 07:44:13;;;;;;;8.93;4.82;;;10.70;99.90;;;;;;19878267;29;20046;-57
2022/04/12 07:54:16;;;;;;;8.05;5.38;;;11.20;99.20;;;;;;19858894;29;20055;-57
2022/04/12 08:04:18;;;;;;;8.20;5.25;;;11.40;98.40;;;;;;19860734;29;20495;-57
2022/04/12 08:14:21;;;;;;;8.27;4.85;;;11.50;96.80;;;;;;19842847;29;20043;-57
2022/04/12 08:24:24;;;;;;;7.97;5.40;;;11.80;96.60;;;;;;19875958;29;20410;-57
2022/04/12 08:34:35;;;;;;;8.15;5.55;;;12.20;95.50;;;;;;19855052;29;20116;-56
2022/04/12 08:44:39;;;;;;;8.23;5.10;;;11.90;94.60;;;;;;19858328;29;20506;-56
2022/04/12 08:54:43;;;;;;;10.30;4.70;;;12.10;96.90;;;;;;19809713;29;20124;-56
2022/04/12 09:04:46;;;;;;;11.93;4.53;;;12.60;95.00;;;;;;19874197;29;20042;-57
2022/04/12 09:14:56;;;;;;;9.82;5.40;;;13.00;95.10;;;;;;19873728;29;20067;-57
2022/04/12 09:25:03;;;;;;;8.98;5.68;;;13.20;93.80;;;;;;19829825;29;20044;-57
2022/04/12 09:35:07;;;;;;;10.00;5.15;;;13.40;93.60;;;;;;19797842;29;20433;-57
2022/04/12 09:45:18;;;;;;;8.88;6.30;;;13.60;93.20;;;;;;19870716;29;20429;-57
2022/04/12 09:55:44;;;;;;;11.18;6.72;;;13.60;92.90;;;;;;19860560;29;20167;-57
2022/04/12 10:05:46;;;;;;;8.57;6.20;;;13.70;94.10;;;;;;19857938;29;20088;-57
2022/04/12 10:15:51;;;;;;;11.15;6.60;;;13.70;92.60;;;;;;19847494;29;20043;-57
2022/04/12 10:25:57;;;;;;;10.90;6.40;;;14.30;93.20;;;;;;19847766;29;20108;-58
2022/04/12 10:36:02;;;;;;;10.25;6.45;;;14.30;93.00;;;;;;19848520;29;20069;-58
2022/04/12 10:46:08;;;;;;;13.00;7.07;;;14.60;94.40;;;;;;19883054;29;20042;-57
2022/04/12 10:56:13;;;;;;;10.10;6.93;;;15.00;94.70;;;;;;19882166;29;20112;-57
2022/04/12 11:06:31;;;;;;;17.05;7.47;;;14.50;91.70;;;;;;19881624;29;20112;-57
2022/04/12 11:16:53;;;;;;;13.43;8.70;;;14.00;95.10;;;;;;19879744;29;20066;-57
2022/04/12 11:27:10;;;;;;;12.77;7.10;;;13.90;90.20;;;;;;19842381;29;20127;-58
2022/04/12 11:37:12;;;;;;;12.73;7.22;;;13.80;93.00;;;;;;19868313;29;20135;-58
2022/04/12 11:47:15;;;;;;;11.52;6.95;;;14.30;92.50;;;;;;19852399;29;20043;-54
2022/04/12 11:57:24;;;;;;;14.52;7.78;;;14.50;91.40;;;;;;19876875;29;20075;-58
2022/04/12 12:07:28;;;;;;;14.80;8.68;;;14.50;94.00;;;;;;19802839;29;20400;-57
2022/04/12 12:17:31;;;;;;;13.43;8.77;;;14.60;91.60;;;;;;19832404;29;20131;-58
2022/04/12 12:27:37;;;;;;;13.05;7.40;;;14.60;93.30;;;;;;19801404;29;20047;-57
2022/04/12 12:37:42;;;;;;;13.32;6.95;;;15.10;91.80;;;;;;19875418;29;20103;-58
2022/04/12 12:47:47;;;;;;;11.65;7.53;;;15.50;89.50;;;;;;19837866;29;20039;-58
2022/04/12 12:57:52;;;;;;;12.13;7.10;;;15.30;87.90;;;;;;19799498;29;20624;-58
2022/04/12 13:08:04;;;;;;;13.80;7.22;;;15.20;90.00;;;;;;19812459;29;20111;-58
2022/04/12 13:18:07;;;;;;;14.85;8.25;;;15.20;90.00;;;;;;19852301;29;20127;-58
2022/04/12 13:28:10;;;;;;;13.45;6.95;;;15.20;85.00;;;;;;19830240;29;20076;-58
2022/04/12 13:38:13;;;;;;;10.90;6.63;;;15.20;88.30;;;;;;19874660;29;20520;-58
2022/04/12 13:48:15;;;;;;;10.95;6.72;;;15.30;85.50;;;;;;19845672;29;20127;-58
2022/04/12 13:58:18;;;;;;;10.65;5.80;;;15.30;82.60;;;;;;19821573;29;20470;-58
2022/04/12 14:08:20;;;;;;;8.93;5.00;;;15.10;82.80;;;;;;19886051;29;20103;-58
2022/04/12 14:18:23;;;;;;;9.07;5.03;;;14.90;79.80;;;;;;19880465;29;20163;-55
2022/04/12 14:28:26;;;;;;;8.52;4.68;;;13.60;81.80;;;;;;19837548;29;20043;-56
2022/04/12 14:38:31;;;;;;;8.27;5.45;;;13.40;83.90;;;;;;19821452;29;20139;-58
2022/04/12 14:48:34;;;;;;;10.38;5.55;;;13.80;85.20;;;;;;19882415;29;20043;-58
2022/04/12 14:58:38;;;;;;;9.38;4.97;;;13.80;83.60;;;;;;19879971;29;20058;-57
2022/04/12 15:08:41;;;;;;;9.43;5.40;;;13.30;84.00;;;;;;19858773;29;20460;-58
2022/04/12 15:18:44;;;;;;;8.68;4.70;;;12.60;84.40;;;;;;19877318;29;20068;-58
2022/04/12 15:28:48;;;;;;;8.73;4.80;;;12.70;85.30;;;;;;19848646;29;20531;-58
2022/04/12 15:38:52;;;;;;;8.23;4.95;;;13.10;83.30;;;;;;19867536;29;20187;-58
2022/04/12 15:48:55;;;;;;;9.20;5.45;;;12.90;87.20;;;;;;19883816;29;20050;-58
2022/04/12 15:58:58;;;;;;;10.75;5.47;;;12.70;85.00;;;;;;19898848;29;1331092;-58
2022/04/12 16:09:04;;;;;;;9.40;5.68;;;12.60;89.10;;;;;;19928325;29;20149;-58
2022/04/12 16:19:06;;;;;;;11.98;5.35;;;12.00;90.10;;;;;;19895107;29;20080;-58
2022/04/12 16:29:09;;;;;;;12.10;6.18;;;11.30;91.10;;;;;;19842917;29;20104;-58
2022/04/12 16:39:12;;;;;;;12.25;6.13;;;10.80;92.00;;;;;;19836105;29;20058;-58
2022/04/12 16:49:14;;;;;;;10.65;6.07;;;10.20;93.30;;;;;;19858674;29;20054;-52
2022/04/12 16:59:17;;;;;;;9.60;6.05;;;9.70;94.70;;;;;;19797165;29;20580;-50
2022/04/12 17:09:19;;;;;;;22.00;7.82;;;9.20;94.90;;;;;;19856230;29;20108;-57
2022/04/12 17:19:22;;;;;;;14.32;7.07;;;8.70;95.30;;;;;;19797935;29;20445;-57
2022/04/12 17:29:26;;;;;;;13.90;7.32;;;8.20;96.30;;;;;;19825152;29;20039;-51
2022/04/12 17:39:30;;;;;;;13.98;7.85;;;7.60;97.60;;;;;;19798236;29;20488;-51
2022/04/12 17:49:34;;;;;;;15.88;7.90;;;7.10;98.60;;;;;;19843098;29;20043;-48
2022/04/12 17:59:37;;;;;;;15.95;8.20;;;6.50;99.30;;;;;;19824035;29;20091;-54
2022/04/12 18:09:39;;;;;;;16.45;9.05;;;6.00;99.90;;;;;;19870924;29;20499;-48
2022/04/12 18:19:42;;;;;;;16.20;8.98;;;5.50;99.90;;;;;;19871066;29;20047;-50
2022/04/12 18:29:48;;;;;;;21.77;8.50;;;5.00;99.90;;;;;;19849622;29;20039;-51
2022/04/12 18:39:51;;;;;;;17.73;9.27;;;4.70;99.90;;;;;;19843086;29;20072;-48
2022/04/12 18:49:54;;;;;;;23.60;9.23;;;4.50;99.90;;;;;;19832089;29;20074;-49
2022/04/12 18:59:58;;;;;;;19.00;9.23;;;4.20;99.90;;;;;;19842952;29;20051;-50
2022/04/12 19:10:00;;;;;;;22.08;9.57;;;4.00;99.90;;;;;;19828390;29;20046;-48
2022/04/12 19:20:04;;;;;;;22.80;9.88;;;3.90;99.90;;;;;;19804293;29;20534;-56
2022/04/12 19:30:09;;;;;;;21.80;10.10;;;3.90;99.90;;;;;;19865193;29;20034;-49
2022/04/12 19:40:12;;;;;;;20.55;10.02;;;3.90;99.90;;;;;;19826279;29;20116;-49
2022/04/12 19:50:14;;;;;;;22.02;9.95;;;4.00;99.90;;;;;;19863106;29;20127;-51
2022/04/12 20:00:17;;;;;;;18.92;10.20;;;3.80;99.90;;;;;;19850506;29;20112;-51
2022/04/12 20:10:19;;;;;;;18.02;9.60;;;3.90;99.90;;;;;;19854103;29;20068;-50
2022/04/12 20:20:22;;;;;;;19.05;9.45;;;3.90;99.90;;;;;;19854380;29;20047;-48
2022/04/12 20:30:26;;;;;;;18.48;9.07;;;3.80;99.90;;;;;;19808346;29;20473;-54
2022/04/12 20:40:29;;;;;;;17.92;8.82;;;3.80;99.90;;;;;;19860377;29;20071;-51
2022/04/12 20:50:32;;;;;;;22.02;9.77;;;3.60;99.90;;;;;;19849088;29;20111;-48
2022/04/12 21:00:36;;;;;;;23.45;9.07;;;3.60;99.90;;;;;;19843856;29;20051;-49
2022/04/12 21:10:39;;;;;;;21.17;9.57;;;3.50;99.90;;;;;;19814924;29;20104;-54
2022/04/12 21:20:43;;;;;;;21.40;9.75;;;3.40;99.90;;;;;;19805914;29;20191;-54
2022/04/12 21:30:47;;;;;;;20.48;10.35;;;3.40;99.90;;;;;;19797597;29;20457;-51
2022/04/12 21:40:49;;;;;;;20.08;10.27;;;3.50;99.90;;;;;;19827705;29;20047;-50
2022/04/12 21:50:52;;;;;;;19.75;10.18;;;3.40;99.90;;;;;;19797479;29;20036;-48
2022/04/12 22:00:55;;;;;;;23.92;11.35;;;3.20;99.90;;;;;;19848582;29;20431;-48
2022/04/12 22:10:58;;;;;;;22.45;10.75;;;3.10;99.90;;;;;;19895959;29;20095;-55
2022/04/12 22:21:01;;;;;;;24.23;11.05;;;3.20;99.90;;;;;;19857843;29;20051;-48
2022/04/12 22:31:04;;;;;;;25.17;11.35;;;3.20;99.90;;;;;;19817675;29;20047;-55
2022/04/12 22:41:07;;;;;;;25.08;10.75;;;3.30;99.90;;;;;;19845330;29;20035;-55
2022/04/12 22:51:09;;;;;;;20.67;10.55;;;3.40;99.90;;;;;;19867376;29;20441;-54
2022/04/12 23:01:12;;;;;;;24.33;11.77;;;3.50;99.90;;;;;;19832812;29;20113;-54
2022/04/12 23:11:14;;;;;;;23.15;11.43;;;3.50;99.90;;;;;;19805767;29;20076;-54
2022/04/12 23:21:17;;;;;;;28.52;12.52;;;3.70;99.90;;;;;;19802145;29;20314;-51
2022/04/12 23:31:22;;;;;;;23.40;11.95;;;3.60;99.90;;;;;;19805069;29;20043;-51
2022/04/12 23:41:30;;;;;;;21.88;11.43;;;3.40;99.90;;;;;;19876517;29;20072;-54
2022/04/12 23:51:32;;;;;;;22.20;11.55;;;3.30;99.90;;;;;;19824623;29;20080;-50
